sensor_id;sensor_type;location;lat;lon;timestamp;P1;durP1;ratioP1;P2;durP2;ratioP2
44434;SDS011;30138;20.964;105.830;2023-03-24T00:02:49;197.73;;;104.38;;
44434;SDS011;30138;20.964;105.830;2023-03-24T00:07:59;202.50;;;107.65;;
44434;SDS011;30138;20.964;105.830;2023-03-24T00:13:06;210.38;;;108.95;;
44434;SDS011;30138;20.964;105.830;2023-03-24T00:18:13;201.40;;;108.82;;
44434;SDS011;30138;20.964;105.830;2023-03-24T00:23:25;200.15;;;108.55;;
44434;SDS011;30138;20.964;105.830;2023-03-24T00:28:34;199.33;;;107.90;;
44434;SDS011;30138;20.964;105.830;2023-03-24T00:33:41;194.80;;;108.15;;
44434;SDS011;30138;20.964;105.830;2023-03-24T00:38:53;191.43;;;106.37;;
44434;SDS011;30138;20.964;105.830;2023-03-24T00:44:01;194.90;;;105.35;;
44434;SDS011;30138;20.964;105.830;2023-03-24T00:49:08;173.77;;;101.10;;
44434;SDS011;30138;20.964;105.830;2023-03-24T00:54:18;180.35;;;102.72;;
44434;SDS011;30138;20.964;105.830;2023-03-24T00:59:28;185.13;;;102.22;;
44434;SDS011;30138;20.964;105.830;2023-03-24T01:04:43;173.02;;;100.38;;
44434;SDS011;30138;20.964;105.830;2023-03-24T01:09:53;179.13;;;99.35;;
44434;SDS011;30138;20.964;105.830;2023-03-24T01:15:02;186.80;;;100.47;;
44434;SDS011;30138;20.964;105.830;2023-03-24T01:20:13;177.88;;;99.10;;
44434;SDS011;30138;20.964;105.830;2023-03-24T01:25:26;168.30;;;93.17;;
44434;SDS011;30138;20.964;105.830;2023-03-24T01:30:34;172.23;;;95.37;;
44434;SDS011;30138;20.964;105.830;2023-03-24T01:35:43;164.73;;;91.68;;
44434;SDS011;30138;20.964;105.830;2023-03-24T01:40:53;165.65;;;91.13;;
44434;SDS011;30138;20.964;105.830;2023-03-24T01:46:05;163.82;;;89.93;;
44434;SDS011;30138;20.964;105.830;2023-03-24T01:51:24;153.57;;;88.30;;
44434;SDS011;30138;20.964;105.830;2023-03-24T01:56:44;156.57;;;89.55;;
44434;SDS011;30138;20.964;105.830;2023-03-24T02:01:58;162.18;;;88.80;;
44434;SDS011;30138;20.964;105.830;2023-03-24T02:07:30;155.63;;;86.60;;
44434;SDS011;30138;20.964;105.830;2023-03-24T02:12:50;169.00;;;90.65;;
44434;SDS011;30138;20.964;105.830;2023-03-24T02:29:31;147.15;;;84.03;;
44434;SDS011;30138;20.964;105.830;2023-03-24T02:40:50;146.45;;;83.75;;
44434;SDS011;30138;20.964;105.830;2023-03-24T02:46:08;159.82;;;86.85;;
44434;SDS011;30138;20.964;105.830;2023-03-24T02:51:22;151.02;;;86.35;;
44434;SDS011;30138;20.964;105.830;2023-03-24T02:56:43;148.15;;;86.55;;
44434;SDS011;30138;20.964;105.830;2023-03-24T03:02:06;147.27;;;86.38;;
44434;SDS011;30138;20.964;105.830;2023-03-24T03:07:26;153.63;;;92.18;;
44434;SDS011;30138;20.964;105.830;2023-03-24T03:12:40;157.60;;;90.78;;
44434;SDS011;30138;20.964;105.830;2023-03-24T03:17:50;150.90;;;92.25;;
44434;SDS011;30138;20.964;105.830;2023-03-24T03:23:04;157.15;;;93.45;;
44434;SDS011;30138;20.964;105.830;2023-03-24T03:28:21;157.15;;;95.88;;
44434;SDS011;30138;20.964;105.830;2023-03-24T03:33:34;157.10;;;95.03;;
44434;SDS011;30138;20.964;105.830;2023-03-24T03:38:48;152.02;;;96.30;;
44434;SDS011;30138;20.964;105.830;2023-03-24T03:44:06;155.20;;;98.85;;
44434;SDS011;30138;20.964;105.830;2023-03-24T03:49:15;158.63;;;97.68;;
44434;SDS011;30138;20.964;105.830;2023-03-24T03:54:23;164.13;;;100.10;;
44434;SDS011;30138;20.964;105.830;2023-03-24T03:59:37;155.68;;;98.38;;
44434;SDS011;30138;20.964;105.830;2023-03-24T04:04:54;165.50;;;104.05;;
44434;SDS011;30138;20.964;105.830;2023-03-24T04:10:47;160.52;;;102.30;;
44434;SDS011;30138;20.964;105.830;2023-03-24T04:16:36;156.95;;;101.40;;
44434;SDS011;30138;20.964;105.830;2023-03-24T04:22:14;159.23;;;103.07;;
44434;SDS011;30138;20.964;105.830;2023-03-24T04:27:50;165.32;;;104.85;;
44434;SDS011;30138;20.964;105.830;2023-03-24T04:33:08;157.10;;;104.32;;
44434;SDS011;30138;20.964;105.830;2023-03-24T04:38:26;155.00;;;106.05;;
44434;SDS011;30138;20.964;105.830;2023-03-24T04:43:58;164.95;;;107.38;;
44434;SDS011;30138;20.964;105.830;2023-03-24T04:49:24;167.57;;;109.68;;
44434;SDS011;30138;20.964;105.830;2023-03-24T04:54:36;163.65;;;106.93;;
44434;SDS011;30138;20.964;105.830;2023-03-24T04:59:51;160.65;;;108.15;;
44434;SDS011;30138;20.964;105.830;2023-03-24T05:10:20;162.88;;;108.88;;
44434;SDS011;30138;20.964;105.830;2023-03-24T05:15:32;172.77;;;110.72;;
44434;SDS011;30138;20.964;105.830;2023-03-24T05:21:01;171.27;;;109.88;;
44434;SDS011;30138;20.964;105.830;2023-03-24T05:26:11;165.50;;;112.95;;
44434;SDS011;30138;20.964;105.830;2023-03-24T05:37:00;161.25;;;109.40;;
44434;SDS011;30138;20.964;105.830;2023-03-24T05:42:24;163.23;;;110.68;;
44434;SDS011;30138;20.964;105.830;2023-03-24T05:47:35;164.80;;;109.80;;
44434;SDS011;30138;20.964;105.830;2023-03-24T05:52:46;167.98;;;112.47;;
44434;SDS011;30138;20.964;105.830;2023-03-24T05:58:11;170.50;;;110.53;;
44434;SDS011;30138;20.964;105.830;2023-03-24T06:03:22;175.52;;;109.88;;
44434;SDS011;30138;20.964;105.830;2023-03-24T06:08:42;165.05;;;109.20;;
44434;SDS011;30138;20.964;105.830;2023-03-24T06:19:00;162.02;;;106.55;;
44434;SDS011;30138;20.964;105.830;2023-03-24T06:24:38;170.68;;;110.60;;
44434;SDS011;30138;20.964;105.830;2023-03-24T06:29:49;164.50;;;110.93;;
44434;SDS011;30138;20.964;105.830;2023-03-24T06:34:56;169.65;;;111.97;;
44434;SDS011;30138;20.964;105.830;2023-03-24T06:40:14;162.68;;;111.50;;
44434;SDS011;30138;20.964;105.830;2023-03-24T06:45:29;165.60;;;110.40;;
44434;SDS011;30138;20.964;105.830;2023-03-24T06:50:47;166.23;;;110.45;;
44434;SDS011;30138;20.964;105.830;2023-03-24T06:56:03;173.05;;;111.53;;
44434;SDS011;30138;20.964;105.830;2023-03-24T07:01:18;171.18;;;110.95;;
44434;SDS011;30138;20.964;105.830;2023-03-24T07:06:34;163.85;;;111.50;;
44434;SDS011;30138;20.964;105.830;2023-03-24T07:11:54;171.35;;;110.90;;
44434;SDS011;30138;20.964;105.830;2023-03-24T07:17:04;166.80;;;111.70;;
44434;SDS011;30138;20.964;105.830;2023-03-24T07:22:32;169.80;;;110.55;;
44434;SDS011;30138;20.964;105.830;2023-03-24T07:28:08;166.48;;;108.20;;
44434;SDS011;30138;20.964;105.830;2023-03-24T07:33:17;165.27;;;108.72;;
44434;SDS011;30138;20.964;105.830;2023-03-24T07:38:29;175.95;;;114.75;;
44434;SDS011;30138;20.964;105.830;2023-03-24T07:43:45;166.60;;;112.38;;
44434;SDS011;30138;20.964;105.830;2023-03-24T07:48:59;167.80;;;110.63;;
44434;SDS011;30138;20.964;105.830;2023-03-24T07:54:07;167.85;;;110.38;;
44434;SDS011;30138;20.964;105.830;2023-03-24T07:59:23;165.02;;;108.82;;
44434;SDS011;30138;20.964;105.830;2023-03-24T08:04:40;166.07;;;111.47;;
44434;SDS011;30138;20.964;105.830;2023-03-24T08:10:05;177.38;;;113.05;;
44434;SDS011;30138;20.964;105.830;2023-03-24T08:15:15;173.77;;;115.10;;
44434;SDS011;30138;20.964;105.830;2023-03-24T08:20:22;163.48;;;113.30;;
44434;SDS011;30138;20.964;105.830;2023-03-24T08:25:30;162.27;;;109.22;;
44434;SDS011;30138;20.964;105.830;2023-03-24T08:30:41;163.40;;;110.57;;
44434;SDS011;30138;20.964;105.830;2023-03-24T08:35:51;165.90;;;110.45;;
44434;SDS011;30138;20.964;105.830;2023-03-24T08:41:00;168.23;;;109.50;;
44434;SDS011;30138;20.964;105.830;2023-03-24T08:46:11;171.13;;;110.00;;
44434;SDS011;30138;20.964;105.830;2023-03-24T08:51:18;163.13;;;107.93;;
44434;SDS011;30138;20.964;105.830;2023-03-24T08:56:24;163.60;;;108.18;;
44434;SDS011;30138;20.964;105.830;2023-03-24T09:01:33;159.02;;;102.82;;
44434;SDS011;30138;20.964;105.830;2023-03-24T09:06:42;157.93;;;102.78;;
44434;SDS011;30138;20.964;105.830;2023-03-24T09:11:50;152.23;;;103.05;;
44434;SDS011;30138;20.964;105.830;2023-03-24T09:17:00;160.80;;;104.28;;
44434;SDS011;30138;20.964;105.830;2023-03-24T09:22:08;157.43;;;104.93;;
44434;SDS011;30138;20.964;105.830;2023-03-24T09:27:15;151.55;;;101.38;;
44434;SDS011;30138;20.964;105.830;2023-03-24T09:32:24;151.85;;;97.65;;
44434;SDS011;30138;20.964;105.830;2023-03-24T09:37:31;155.02;;;100.13;;
44434;SDS011;30138;20.964;105.830;2023-03-24T09:42:40;148.38;;;95.32;;
44434;SDS011;30138;20.964;105.830;2023-03-24T09:47:51;141.27;;;93.82;;
44434;SDS011;30138;20.964;105.830;2023-03-24T09:53:03;146.68;;;93.80;;
44434;SDS011;30138;20.964;105.830;2023-03-24T09:58:18;149.52;;;92.00;;
44434;SDS011;30138;20.964;105.830;2023-03-24T10:03:28;146.13;;;89.75;;
44434;SDS011;30138;20.964;105.830;2023-03-24T10:08:35;135.57;;;90.88;;
44434;SDS011;30138;20.964;105.830;2023-03-24T10:13:49;138.87;;;87.20;;
44434;SDS011;30138;20.964;105.830;2023-03-24T10:24:24;129.05;;;81.57;;
44434;SDS011;30138;20.964;105.830;2023-03-24T10:29:37;135.30;;;82.03;;
44434;SDS011;30138;20.964;105.830;2023-03-24T10:34:50;136.07;;;78.78;;
44434;SDS011;30138;20.964;105.830;2023-03-24T10:40:02;127.03;;;76.95;;
44434;SDS011;30138;20.964;105.830;2023-03-24T10:45:23;130.88;;;74.95;;
44434;SDS011;30138;20.964;105.830;2023-03-24T10:50:40;129.40;;;73.78;;
44434;SDS011;30138;20.964;105.830;2023-03-24T10:55:49;121.65;;;71.15;;
44434;SDS011;30138;20.964;105.830;2023-03-24T11:00:57;113.30;;;68.68;;
44434;SDS011;30138;20.964;105.830;2023-03-24T11:06:12;121.57;;;68.30;;
44434;SDS011;30138;20.964;105.830;2023-03-24T11:11:27;118.75;;;66.40;;
44434;SDS011;30138;20.964;105.830;2023-03-24T11:16:36;108.57;;;65.72;;
44434;SDS011;30138;20.964;105.830;2023-03-24T11:21:50;113.72;;;64.22;;
44434;SDS011;30138;20.964;105.830;2023-03-24T11:27:09;113.20;;;60.92;;
44434;SDS011;30138;20.964;105.830;2023-03-24T11:32:22;111.78;;;59.88;;
44434;SDS011;30138;20.964;105.830;2023-03-24T11:37:34;108.63;;;59.60;;
44434;SDS011;30138;20.964;105.830;2023-03-24T11:42:45;101.28;;;59.00;;
44434;SDS011;30138;20.964;105.830;2023-03-24T11:47:59;113.93;;;62.03;;
44434;SDS011;30138;20.964;105.830;2023-03-24T11:53:20;113.45;;;59.92;;
44434;SDS011;30138;20.964;105.830;2023-03-24T11:58:34;112.63;;;59.92;;
44434;SDS011;30138;20.964;105.830;2023-03-24T12:04:13;119.78;;;60.55;;
44434;SDS011;30138;20.964;105.830;2023-03-24T12:15:05;106.70;;;57.78;;
44434;SDS011;30138;20.964;105.830;2023-03-24T12:20:30;102.55;;;58.42;;
44434;SDS011;30138;20.964;105.830;2023-03-24T12:25:47;104.88;;;57.63;;
44434;SDS011;30138;20.964;105.830;2023-03-24T12:37:05;99.45;;;54.83;;
44434;SDS011;30138;20.964;105.830;2023-03-24T12:42:22;94.65;;;54.65;;
44434;SDS011;30138;20.964;105.830;2023-03-24T12:47:40;102.75;;;55.22;;
44434;SDS011;30138;20.964;105.830;2023-03-24T12:53:13;91.65;;;53.25;;
44434;SDS011;30138;20.964;105.830;2023-03-24T12:58:40;99.55;;;52.33;;
44434;SDS011;30138;20.964;105.830;2023-03-24T13:03:56;94.03;;;51.13;;
44434;SDS011;30138;20.964;105.830;2023-03-24T13:09:13;89.57;;;48.88;;
44434;SDS011;30138;20.964;105.830;2023-03-24T13:14:40;88.55;;;46.70;;
44434;SDS011;30138;20.964;105.830;2023-03-24T13:20:04;88.57;;;47.03;;
44434;SDS011;30138;20.964;105.830;2023-03-24T13:25:26;97.43;;;47.92;;
44434;SDS011;30138;20.964;105.830;2023-03-24T13:30:53;89.18;;;46.63;;
44434;SDS011;30138;20.964;105.830;2023-03-24T13:36:10;90.35;;;46.00;;
44434;SDS011;30138;20.964;105.830;2023-03-24T13:41:43;86.75;;;47.90;;
44434;SDS011;30138;20.964;105.830;2023-03-24T13:47:02;89.22;;;46.17;;
44434;SDS011;30138;20.964;105.830;2023-03-24T13:52:20;92.28;;;46.75;;
44434;SDS011;30138;20.964;105.830;2023-03-24T13:57:39;92.95;;;47.17;;
44434;SDS011;30138;20.964;105.830;2023-03-24T14:08:41;96.90;;;50.17;;
44434;SDS011;30138;20.964;105.830;2023-03-24T14:14:15;91.25;;;49.63;;
44434;SDS011;30138;20.964;105.830;2023-03-24T14:19:42;95.80;;;49.33;;
44434;SDS011;30138;20.964;105.830;2023-03-24T14:25:25;101.47;;;50.35;;
44434;SDS011;30138;20.964;105.830;2023-03-24T14:30:53;162.40;;;74.90;;
44434;SDS011;30138;20.964;105.830;2023-03-24T14:36:17;204.80;;;94.70;;
44434;SDS011;30138;20.964;105.830;2023-03-24T14:41:33;257.95;;;113.88;;
44434;SDS011;30138;20.964;105.830;2023-03-24T14:46:52;250.27;;;107.20;;
44434;SDS011;30138;20.964;105.830;2023-03-24T14:52:11;272.83;;;112.47;;
44434;SDS011;30138;20.964;105.830;2023-03-24T14:57:29;242.98;;;101.03;;
44434;SDS011;30138;20.964;105.830;2023-03-24T15:02:51;224.23;;;90.38;;
44434;SDS011;30138;20.964;105.830;2023-03-24T15:08:14;218.23;;;88.93;;
44434;SDS011;30138;20.964;105.830;2023-03-24T15:13:38;221.02;;;89.82;;
44434;SDS011;30138;20.964;105.830;2023-03-24T15:18:49;186.50;;;85.93;;
44434;SDS011;30138;20.964;105.830;2023-03-24T15:24:01;206.35;;;88.35;;
44434;SDS011;30138;20.964;105.830;2023-03-24T15:29:31;195.68;;;85.95;;
44434;SDS011;30138;20.964;105.830;2023-03-24T15:34:40;177.48;;;80.55;;
44434;SDS011;30138;20.964;105.830;2023-03-24T15:39:55;177.80;;;79.68;;
44434;SDS011;30138;20.964;105.830;2023-03-24T15:45:08;157.13;;;71.70;;
44434;SDS011;30138;20.964;105.830;2023-03-24T15:50:29;148.70;;;70.43;;
44434;SDS011;30138;20.964;105.830;2023-03-24T15:55:41;144.18;;;69.10;;
44434;SDS011;30138;20.964;105.830;2023-03-24T16:00:50;130.40;;;63.22;;
44434;SDS011;30138;20.964;105.830;2023-03-24T16:06:11;131.82;;;63.08;;
44434;SDS011;30138;20.964;105.830;2023-03-24T16:11:22;127.93;;;62.30;;
44434;SDS011;30138;20.964;105.830;2023-03-24T16:16:35;150.35;;;83.20;;
44434;SDS011;30138;20.964;105.830;2023-03-24T16:26:54;195.82;;;120.97;;
44434;SDS011;30138;20.964;105.830;2023-03-24T16:32:02;187.98;;;121.55;;
44434;SDS011;30138;20.964;105.830;2023-03-24T16:37:12;211.90;;;135.40;;
44434;SDS011;30138;20.964;105.830;2023-03-24T16:42:24;242.80;;;159.65;;
44434;SDS011;30138;20.964;105.830;2023-03-24T16:47:35;230.10;;;147.00;;
44434;SDS011;30138;20.964;105.830;2023-03-24T16:52:43;205.70;;;129.75;;
44434;SDS011;30138;20.964;105.830;2023-03-24T16:57:56;188.00;;;113.22;;
44434;SDS011;30138;20.964;105.830;2023-03-24T17:03:08;162.65;;;99.75;;
44434;SDS011;30138;20.964;105.830;2023-03-24T17:08:24;137.50;;;85.88;;
44434;SDS011;30138;20.964;105.830;2023-03-24T17:13:35;131.20;;;79.25;;
44434;SDS011;30138;20.964;105.830;2023-03-24T17:18:44;142.75;;;77.25;;
44434;SDS011;30138;20.964;105.830;2023-03-24T17:23:52;135.15;;;74.45;;
44434;SDS011;30138;20.964;105.830;2023-03-24T17:29:02;130.68;;;75.50;;
44434;SDS011;30138;20.964;105.830;2023-03-24T17:34:11;155.18;;;92.22;;
44434;SDS011;30138;20.964;105.830;2023-03-24T17:39:20;162.25;;;102.28;;
44434;SDS011;30138;20.964;105.830;2023-03-24T17:44:31;169.57;;;103.20;;
44434;SDS011;30138;20.964;105.830;2023-03-24T17:49:38;206.20;;;134.25;;
44434;SDS011;30138;20.964;105.830;2023-03-24T17:54:45;234.50;;;148.73;;
44434;SDS011;30138;20.964;105.830;2023-03-24T17:59:54;206.05;;;127.72;;
44434;SDS011;30138;20.964;105.830;2023-03-24T18:05:00;165.80;;;98.00;;
44434;SDS011;30138;20.964;105.830;2023-03-24T18:10:08;153.55;;;91.88;;
44434;SDS011;30138;20.964;105.830;2023-03-24T18:15:18;144.93;;;85.07;;
44434;SDS011;30138;20.964;105.830;2023-03-24T18:20:26;151.70;;;90.57;;
44434;SDS011;30138;20.964;105.830;2023-03-24T18:25:33;204.57;;;131.25;;
44434;SDS011;30138;20.964;105.830;2023-03-24T18:30:42;231.15;;;158.70;;
44434;SDS011;30138;20.964;105.830;2023-03-24T18:35:49;268.15;;;189.00;;
44434;SDS011;30138;20.964;105.830;2023-03-24T18:40:57;245.70;;;163.10;;
44434;SDS011;30138;20.964;105.830;2023-03-24T18:46:10;205.10;;;129.80;;
44434;SDS011;30138;20.964;105.830;2023-03-24T18:51:17;166.55;;;104.07;;
44434;SDS011;30138;20.964;105.830;2023-03-24T18:56:25;145.02;;;90.15;;
44434;SDS011;30138;20.964;105.830;2023-03-24T19:01:34;131.85;;;79.45;;
44434;SDS011;30138;20.964;105.830;2023-03-24T19:06:41;145.65;;;79.00;;
44434;SDS011;30138;20.964;105.830;2023-03-24T19:11:50;123.47;;;71.90;;
44434;SDS011;30138;20.964;105.830;2023-03-24T19:16:59;125.45;;;68.70;;
44434;SDS011;30138;20.964;105.830;2023-03-24T19:22:06;125.40;;;67.97;;
44434;SDS011;30138;20.964;105.830;2023-03-24T19:27:13;116.63;;;65.63;;
44434;SDS011;30138;20.964;105.830;2023-03-24T19:32:22;113.05;;;64.68;;
44434;SDS011;30138;20.964;105.830;2023-03-24T19:37:29;109.22;;;64.13;;
44434;SDS011;30138;20.964;105.830;2023-03-24T19:42:37;101.88;;;58.88;;
44434;SDS011;30138;20.964;105.830;2023-03-24T19:47:47;101.38;;;57.47;;
44434;SDS011;30138;20.964;105.830;2023-03-24T19:52:54;101.57;;;57.70;;
44434;SDS011;30138;20.964;105.830;2023-03-24T19:58:04;109.75;;;58.33;;
44434;SDS011;30138;20.964;105.830;2023-03-24T20:03:12;104.55;;;58.88;;
44434;SDS011;30138;20.964;105.830;2023-03-24T20:08:19;103.78;;;57.50;;
44434;SDS011;30138;20.964;105.830;2023-03-24T20:13:26;105.53;;;57.92;;
44434;SDS011;30138;20.964;105.830;2023-03-24T20:18:36;106.20;;;58.40;;
44434;SDS011;30138;20.964;105.830;2023-03-24T20:23:43;104.22;;;57.30;;
44434;SDS011;30138;20.964;105.830;2023-03-24T20:28:50;106.40;;;58.80;;
44434;SDS011;30138;20.964;105.830;2023-03-24T20:33:59;102.80;;;58.17;;
44434;SDS011;30138;20.964;105.830;2023-03-24T20:39:07;106.82;;;59.92;;
44434;SDS011;30138;20.964;105.830;2023-03-24T20:44:14;106.57;;;57.13;;
44434;SDS011;30138;20.964;105.830;2023-03-24T20:49:23;107.75;;;59.40;;
44434;SDS011;30138;20.964;105.830;2023-03-24T20:54:30;101.75;;;57.42;;
44434;SDS011;30138;20.964;105.830;2023-03-24T20:59:37;114.80;;;57.20;;
44434;SDS011;30138;20.964;105.830;2023-03-24T21:04:45;101.80;;;55.17;;
44434;SDS011;30138;20.964;105.830;2023-03-24T21:09:52;104.40;;;54.70;;
44434;SDS011;30138;20.964;105.830;2023-03-24T21:15:00;105.65;;;53.85;;
44434;SDS011;30138;20.964;105.830;2023-03-24T21:20:09;99.97;;;53.33;;
44434;SDS011;30138;20.964;105.830;2023-03-24T21:25:16;104.18;;;53.50;;
44434;SDS011;30138;20.964;105.830;2023-03-24T21:30:24;98.38;;;51.40;;
44434;SDS011;30138;20.964;105.830;2023-03-24T21:35:33;95.57;;;50.88;;
44434;SDS011;30138;20.964;105.830;2023-03-24T21:40:40;88.10;;;51.17;;
44434;SDS011;30138;20.964;105.830;2023-03-24T21:45:47;93.10;;;50.17;;
44434;SDS011;30138;20.964;105.830;2023-03-24T21:50:57;92.30;;;50.17;;
44434;SDS011;30138;20.964;105.830;2023-03-24T21:56:05;100.07;;;52.30;;
44434;SDS011;30138;20.964;105.830;2023-03-24T22:01:12;92.45;;;50.30;;
44434;SDS011;30138;20.964;105.830;2023-03-24T22:06:21;98.95;;;50.72;;
44434;SDS011;30138;20.964;105.830;2023-03-24T22:11:29;96.15;;;50.20;;
44434;SDS011;30138;20.964;105.830;2023-03-24T22:16:36;91.03;;;52.63;;
44434;SDS011;30138;20.964;105.830;2023-03-24T22:21:46;90.07;;;50.47;;
44434;SDS011;30138;20.964;105.830;2023-03-24T22:26:58;88.05;;;49.33;;
44434;SDS011;30138;20.964;105.830;2023-03-24T22:32:06;91.50;;;51.00;;
44434;SDS011;30138;20.964;105.830;2023-03-24T22:37:14;94.30;;;52.03;;
44434;SDS011;30138;20.964;105.830;2023-03-24T22:42:21;89.75;;;52.28;;
44434;SDS011;30138;20.964;105.830;2023-03-24T22:47:28;91.78;;;53.92;;
44434;SDS011;30138;20.964;105.830;2023-03-24T22:52:36;87.60;;;50.70;;
44434;SDS011;30138;20.964;105.830;2023-03-24T22:57:44;92.05;;;53.95;;
44434;SDS011;30138;20.964;105.830;2023-03-24T23:02:51;91.20;;;54.33;;
44434;SDS011;30138;20.964;105.830;2023-03-24T23:08:02;96.53;;;55.92;;
44434;SDS011;30138;20.964;105.830;2023-03-24T23:13:09;96.57;;;55.28;;
44434;SDS011;30138;20.964;105.830;2023-03-24T23:18:17;85.63;;;55.38;;
44434;SDS011;30138;20.964;105.830;2023-03-24T23:23:27;93.57;;;55.65;;
44434;SDS011;30138;20.964;105.830;2023-03-24T23:28:33;95.47;;;57.50;;
44434;SDS011;30138;20.964;105.830;2023-03-24T23:33:40;101.93;;;55.67;;
44434;SDS011;30138;20.964;105.830;2023-03-24T23:38:49;94.68;;;55.80;;
44434;SDS011;30138;20.964;105.830;2023-03-24T23:43:57;90.05;;;54.90;;
44434;SDS011;30138;20.964;105.830;2023-03-24T23:49:06;100.10;;;56.78;;
44434;SDS011;30138;20.964;105.830;2023-03-24T23:54:15;105.57;;;57.97;;
44434;SDS011;30138;20.964;105.830;2023-03-24T23:59:22;106.07;;;59.17;;
